Loading...
Orly Airport

LFPO

Code AITA: ORY

Paris, Île-de-France, France

21.0°

Rosée: 12.0

Vitesse du vent

5 kt

Direction: 350° /

Altimètre

29.94 Hg

QNH : 1014

LFPO 191700Z 35005KT 310V020 9999 FEW046CB BKN056 BKN150 21/12 Q1014 NOSIG


Orly Airport

Élévation

88.0 mètres

Ville

Orly

Localisation

Île-de-France

Pays

France

Site Web

Orly Airport

Nouvelle recherche